Weather observations for the past three days for
Kenai, Kenai Municipal Airport
| Date | Time (akdt) | Wind (kph) | Vis. (km) | Weather | Sky Cond. | Temperature (ºC) | Relative Humidity | Wind Chill (°C) | Heat Index (°C) | Pressure | Precipitation (cm) | ||||||
|---|---|---|---|---|---|---|---|---|---|---|---|---|---|---|---|---|---|
| Air | Dwpt | 6 hour | altimeter (cm) | sea level (mb) | 1 hr | 3 hr | 6 hr | ||||||||||
| Max. | Min. | ||||||||||||||||
| 06 | 00:53 | S 20 | 0.00 | Light Rain | OVC041 | 5 | 3.3 | 89% | 1 | 75.69 | 1009.5 | ||||||
| 05 | 23:53 | S 19 | 0.00 | Light Rain | OVC048 | 4.4 | 2.8 | 89% | 1 | 75.67 | 1009.1 | ||||||
| 05 | 22:53 | SW 24 | 0.00 | Overcast | FEW042 OVC060 | 4.4 | 2.2 | 86% | 0 | 75.64 | 1008.7 | ||||||
| 05 | 21:53 | S 9 | 16.09 | Overcast | OVC047 | 4.4 | 1.7 | 12.2 | 4.4 | 83% | 2 | 75.59 | 1008.1 | ||||
| 05 | 20:53 | SW 17 | 16.09 | Overcast | OVC049 | 5 | 1.7 | 79% | 2 | 75.54 | 1007.4 | ||||||
| 05 | 19:53 | W 11 | 16.09 | Overcast | OVC050 | 8.9 | 1.7 | 61% | 7 | 75.49 | 1006.6 | ||||||
| 05 | 18:53 | W 15 | 16.09 | Overcast | OVC055 | 10 | -1.1 | 46% | 8 | 75.44 | 1005.9 | ||||||
| 05 | 17:53 | NW 9 | 16.09 | Overcast | FEW060 OVC085 | 11.1 | -1.1 | 43% | 75.41 | 1005.5 | |||||||
| 05 | 16:53 | NW 13 | 16.09 | Overcast | OVC080 | 11.1 | -0.6 | 45% | 75.39 | 1005.2 | |||||||
| 05 | 15:53 | NW 17 | 16.09 | Overcast | FEW044 SCT055 OVC080 | 10.6 | -1.1 | 11.1 | 7.2 | 45% | 75.36 | 1005.1 | |||||
| 05 | 14:53 | NW 15 | 16.09 | Overcast | BKN060 OVC075 | 10.6 | 0.6 | 50% | 75.36 | 1005.0 | |||||||
| 05 | 13:53 | N 22 | 16.09 | Overcast | OVC060 | 10 | 1.1 | 54% | 7 | 75.36 | 1004.8 | ||||||
| 05 | 12:53 | NW 22 | 16.09 | Overcast | BKN050 OVC055 | 9.4 | 1.1 | 56% | 7 | 75.31 | 1004.4 | ||||||
| 05 | 11:53 | N 20 | 16.09 | Overcast | OVC049 | 8.9 | 1.1 | 58% | 6 | 75.29 | 1004.0 | ||||||
| 05 | 10:53 | N 20 | 16.09 | Overcast | FEW065 OVC080 | 8.3 | 1.7 | 63% | 5 | 75.26 | 1003.6 | ||||||
| 05 | 09:53 | N 15 | 16.09 | Overcast | OVC065 | 7.2 | 1.7 | 7.2 | 2.8 | 68% | 5 | 75.26 | 1003.5 | ||||
| 05 | 08:53 | N 17 | 16.09 | Overcast | OVC075 | 6.1 | 1.7 | 74% | 3 | 75.21 | 1003.0 | ||||||
| 05 | 07:53 | NE 9 | 16.09 | Overcast | OVC070 | 5 | 2.2 | 82% | 3 | 75.18 | 1002.5 | ||||||
| 05 | 06:53 | NE 11 | 16.09 | Overcast | OVC070 | 3.9 | 1.7 | 86% | 1 | 75.13 | 1002.0 | ||||||
| 05 | 05:53 | NE 9 | 16.09 | Overcast | SCT060 BKN075 OVC085 | 3.9 | 1.1 | 82% | 2 | 75.13 | 1001.7 | ||||||
| 05 | 04:53 | N 11 | 0.00 | Unknown Precip | OVC046 | 3.3 | 1.7 | 89% | 1 | 75.11 | 1001.5 | ||||||
| 05 | 03:53 | N 6 | 0.00 | Overcast | BKN055 OVC070 | 2.8 | 1.7 | 6.7 | 1.7 | 93% | 75.11 | 1001.4 | |||||
| 05 | 02:53 | E 6 | 0.00 | Overcast | OVC100 | 2.8 | 1.1 | 89% | 75.08 | 1001.4 | |||||||
| 05 | 01:53 | NE 15 | 0.00 | Fair | CLR | 3.3 | 1.1 | 86% | 0 | 75.08 | 1001.3 | ||||||
| 05 | 00:53 | N 15 | 0.00 | Partly Cloudy | SCT085 | 3.3 | 1.1 | 86% | 0 | 75.11 | 1001.5 | ||||||
| 04 | 23:53 | NE 17 | 0.00 | Partly Cloudy | SCT085 | 3.9 | 1.7 | 86% | 0 | 75.13 | 1001.9 | ||||||
| 04 | 22:53 | NE 7 | 0.00 | Fair | CLR | 3.9 | 1.7 | 86% | 2 | 75.18 | 1002.4 | ||||||
| 04 | 21:53 | E 15 | 16.09 | Fair | CLR | 5.6 | 2.8 | 7.2 | 5 | 82% | 3 | 75.16 | 1002.3 | ||||
| 04 | 20:53 | NE 15 | 16.09 | A Few Clouds | FEW075 | 5.6 | 3.3 | 85% | 3 | 75.21 | 1002.8 | ||||||
| 04 | 19:53 | NE 17 | 16.09 | Mostly Cloudy | BKN080 BKN095 | 6.7 | 3.3 | 79% | 4 | 75.26 | 1003.5 | ||||||
| 04 | 18:53 | NE 28 | 16.09 | Mostly Cloudy | BKN070 | 6.1 | 3.3 | 82% | 2 | 75.26 | 1003.7 | ||||||
| 04 | 17:53 | N 19 | 16.09 | Fair | CLR | 6.1 | 3.9 | 86% | 3 | 75.34 | 1004.6 | ||||||
| 04 | 16:53 | N 26 G 44 | 16.09 | Mostly Cloudy | SCT060 BKN110 | 6.7 | 5 | 89% | 3 | 75.41 | 1005.7 | ||||||
| 04 | 15:53 | NE 19 | 16.09 | Overcast | BKN050 OVC060 | 5.6 | 4.4 | 5.6 | 3.9 | 92% | 2 | 75.54 | 1007.3 | 0.05 | |||
| 04 | 14:53 | N 31 G 46 | 16.09 | Overcast | FEW008 OVC055 | 5 | 3.9 | 93% | 0 | 75.59 | 1008.1 | ||||||
| 04 | 13:53 | N 31 | 16.09 | Overcast | OVC065 | 4.4 | 3.3 | 93% | -0 | 75.67 | 1008.9 | ||||||
| 04 | 12:53 | N 39 G 52 | 16.09 | Overcast and Breezy | SCT007 OVC080 | 4.4 | 2.8 | 89% | -1 | 75.74 | 1009.9 | 0.05 | |||||
| 04 | 11:53 | N 33 G 48 | 16.09 | Overcast and Breezy | BKN075 OVC110 | 3.9 | 2.8 | 93% | -1 | 75.82 | 1011.0 | ||||||
| 04 | 10:53 | N 20 | 16.09 | Light Rain | SCT005 BKN050 OVC060 | 3.9 | 3.3 | 96% | 0 | 75.92 | 1012.3 | 0.05 | |||||
| 04 | 09:53 | N 22 | 16.09 | Overcast | FEW005 OVC055 | 3.9 | 2.8 | 3.9 | 3.3 | 93% | -0 | 75.97 | 1013.0 | 0.05 | |||
| 04 | 08:53 | N 20 | 16.09 | Light Rain | BKN047 OVC055 | 3.3 | 2.8 | 97% | -1 | 76 | 1013.4 | 0.03 | |||||
| 04 | 07:53 | N 15 | 16.09 | Light Rain | OVC044 | 3.3 | 2.8 | 97% | 0 | 76.07 | 1014.3 | 0.03 | |||||
| 04 | 06:53 | N 13 | 16.09 | Light Rain | OVC045 | 3.3 | 2.8 | 97% | 0 | 76.1 | 1014.8 | ||||||
| 04 | 05:53 | N 13 | 16.09 | Light Rain | OVC047 | 3.3 | 2.8 | 97% | 0 | 76.12 | 1015.2 | ||||||
| 04 | 04:53 | N 13 | 0.00 | Light Rain | OVC043 | 3.9 | 3.3 | 96% | 1 | 76.17 | 1015.7 | ||||||
| 04 | 03:53 | N 11 | 0.00 | Light Rain | OVC044 | 3.9 | 3.3 | 5 | 3.9 | 96% | 1 | 76.2 | 1016.1 | 0.03 | |||
| 04 | 02:53 | N 11 | 0.00 | Light Rain | OVC036 | 3.9 | 3.3 | 96% | 1 | 76.23 | 1016.4 | 0.03 | |||||
| 04 | 01:53 | N 11 | 0.00 | Light Rain | FEW029 FEW033 OVC042 | 3.9 | 3.3 | 96% | 1 | 76.25 | 1016.7 | ||||||
| 04 | 00:53 | N 11 | 0.00 | Light Rain | OVC035 | 3.9 | 3.3 | 96% | 1 | 76.25 | 1016.8 | ||||||
| 03 | 23:53 | N 13 | 0.00 | Light Rain | OVC040 | 4.4 | 3.3 | 93% | 2 | 76.25 | 1016.8 | ||||||
| 03 | 22:53 | N 11 | 0.00 | Light Rain | OVC039 | 4.4 | 3.9 | 97% | 2 | 76.25 | 1016.8 | ||||||
| 03 | 21:53 | N 13 | 16.09 | Light Rain | OVC033 | 5 | 3.9 | 8.9 | 5 | 93% | 2 | 76.25 | 1016.7 | 0.03 | 0.03 | ||
| 03 | 20:53 | NE 9 | 16.09 | Light Rain | FEW030 BKN042 OVC049 | 5.6 | 3.9 | 89% | 4 | 76.25 | 1016.6 | ||||||
| 03 | 19:53 | NE 9 | 16.09 | Light Rain | BKN024 OVC031 | 6.7 | 4.4 | 85% | 5 | 76.25 | 1016.9 | ||||||
| 03 | 18:53 | NE 13 | 16.09 | Light Rain | BKN029 OVC036 | 7.2 | 3.3 | 77% | 5 | 76.28 | 1017.0 | ||||||
| 03 | 17:53 | NE 19 | 16.09 | Overcast | OVC045 | 7.8 | 2.8 | 71% | 5 | 76.28 | 1017.2 | ||||||
| 03 | 16:53 | NE 19 | 16.09 | Light Rain | BKN029 BKN037 OVC046 | 8.3 | 3.3 | 71% | 6 | 76.33 | 1017.7 | ||||||
| 03 | 15:53 | NE 11 | 16.09 | Overcast | BKN037 OVC050 | 8.9 | 1.7 | 10.6 | 7.8 | 61% | 7 | 76.35 | 1018.1 | ||||
| 03 | 14:53 | N 20 | 16.09 | Overcast | OVC043 | 9.4 | 0.6 | 55% | 7 | 76.35 | 1018.1 | ||||||
| 03 | 13:53 | N 20 | 16.09 | Overcast | SCT048 OVC060 | 10 | -0.6 | 48% | 8 | 76.38 | 1018.4 | ||||||
| 03 | 12:53 | N 19 | 16.09 | Overcast | BKN065 OVC080 | 10 | 0 | 50% | 8 | 76.4 | 1018.7 | ||||||
| 03 | 11:53 | N 24 | 0.00 | Mostly Cloudy | BKN080 BKN100 | 8.9 | 0 | 54% | 6 | 76.43 | 1019.0 | ||||||
| 03 | 10:53 | N 20 | 16.09 | Overcast | OVC080 | 8.9 | 0 | 54% | 6 | 76.43 | 1019.2 | ||||||
| 03 | 09:53 | N 19 | 16.09 | Partly Cloudy | SCT085 | 7.8 | 0.6 | 7.8 | 2.2 | 61% | 5 | 76.45 | 1019.4 | ||||
| 03 | 08:53 | N 11 | 16.09 | Overcast | OVC075 | 6.1 | 1.1 | 71% | 4 | 76.45 | 1019.4 | ||||||
| 03 | 07:53 | Calm | 16.09 | Overcast | OVC065 | 5 | 1.1 | 76% | 76.45 | 1019.4 | |||||||
| 03 | 06:53 | N 7 | 16.09 | Overcast | OVC060 | 2.8 | 1.1 | 89% | 1 | 76.45 | 1019.6 | ||||||
| 03 | 05:53 | NE 6 | 16.09 | Overcast | FEW050 OVC060 | 2.8 | 1.1 | 89% | 76.5 | 1020.2 | |||||||
| 03 | 04:53 | Calm | 0.00 | Overcast | BKN055 OVC120 | 2.8 | 0.6 | 86% | 76.5 | 1020.1 | |||||||
| 03 | 03:53 | Calm | 0.00 | Mostly Cloudy | FEW065 BKN085 BKN100 | 2.2 | 0.6 | 5.6 | 1.7 | 89% | 76.5 | 1020.2 | |||||
| 03 | 02:53 | E 6 | 0.00 | Mostly Cloudy | BKN060 | 2.8 | 0.6 | 86% | 76.53 | 1020.6 | |||||||
| 03 | 01:53 | E 7 | 0.00 | Overcast | OVC070 | 3.3 | 1.1 | 86% | 2 | 76.53 | 1020.6 | ||||||
| Date | Time (akdt) | Wind (kph) | Vis. (km) | Weather | Sky Cond. | Air | Dwpt | Max. | Min. | Relative Humidity | Wind Chill (°C) | Heat Index (°C) | altimeter (cm) | sea level (mb) | 1 hr | 3 hr | 6 hr |
| 6 hour | |||||||||||||||||
| Temperature (ºC) | Pressure | Precipitation (cm) | |||||||||||||||